Latest Weather Observations for Double Island Point

IDQ60901

Issued at 5:41 am EST Thursday 17 August 2017 (issued every 10 minutes, with the page automatically refreshed every 10 minutes)

About weather observations | Map of Brisbane area stations | Latest observations for Brisbane area | Other Formats
Station Details ID: 040068 Name: DOUBLE ISLAND POINT LIGHTHOUSE Lat: -25.93 Lon: 153.19 Height: 95.64 m
Data from the previous 72 hours. | See also: Recent months at Double Island Point
Date/Time
EST
Temp
°C
App
Temp
°C
Dew
Point
°C
Rel
Hum
%
Delta-T
°C
Wind Press
QNH
hPa
Press
MSL
hPa
Rain since
9am
mm
Dir  Spd
km/h
Gust
km/h
Spd
kts
Gust
kts
17/05:30am 19.7 14.2 18.9 95 0.5 NNW 46 56 25 30 1012.5 1012.3 0.0
17/05:00am 19.5 14.8 18.7 95 0.5 NNW 41 54 22 29 1012.3 1012.1 0.0
17/04:30am 19.5 14.7 18.3 93 0.7 NNW 41 54 22 29 1012.2 1012.0 0.0
17/04:00am 19.5 14.3 18.3 93 0.7 NNW 43 54 23 29 1012.0 1011.8 0.0
17/03:30am 19.5 14.2 18.5 94 0.6 NNW 44 54 24 29 1012.0 1011.8 0.0
17/03:00am 19.7 14.7 18.9 95 0.5 NNW 43 56 23 30 1012.0 1011.8 0.0
17/02:30am 19.7 14.1 18.7 94 0.6 NNW 46 57 25 31 1012.2 1012.0 0.0
17/02:00am 19.8 14.7 19.0 95 0.5 NNW 44 56 24 30 1012.6 1012.4 0.0
17/01:30am 19.8 14.6 18.8 94 0.6 NNW 44 54 24 29 1012.9 1012.7 0.0
17/01:00am 19.9 15.3 18.9 94 0.6 NNW 41 48 22 26 1013.5 1013.2 0.0
17/12:30am 19.9 16.0 18.7 93 0.8 NNW 37 46 20 25 1013.9 1013.7 0.0
17/12:00am 20.0 16.5 18.8 93 0.8 NNW 35 43 19 23 1014.1 1013.9 0.0
 
Date/Time
EST
Temp
°C
App
Temp
°C
Dew
Point
°C
Rel
Hum
%
Delta-T
°C
Wind Press
QNH
hPa
Press
MSL
hPa
Rain since
9am
mm
Dir  Spd
km/h
Gust
km/h
Spd
kts
Gust
kts
16/11:30pm 20.1 16.1 18.6 91 0.9 NNW 37 46 20 25 1014.2 1014.0 0.0
16/11:00pm 20.2 16.7 18.7 91 0.9 NNW 35 46 19 25 1014.2 1014.0 0.0
16/10:30pm 20.3 16.3 18.6 90 1.1 NNW 37 50 20 27 1014.3 1014.1 0.0
16/10:00pm 20.3 17.3 18.6 90 1.1 NNW 32 41 17 22 1014.4 1014.2 0.0
16/09:30pm 20.2 17.1 18.3 89 1.2 NNW 32 39 17 21 1014.2 1014.0 0.0
16/09:00pm 20.2 16.5 18.3 89 1.2 NNW 35 46 19 25 1013.7 1013.5 0.0
16/08:30pm 20.4 16.0 18.5 89 1.2 N 39 54 21 29 1013.3 1013.1 0.0
16/08:00pm 20.3 17.3 18.6 90 1.1 N 32 46 17 25 1013.3 1013.1 0.0
16/07:30pm 20.4 18.1 18.5 89 1.2 N 28 39 15 21 1012.9 1012.7 0.0
16/07:00pm 20.5 17.4 18.3 87 1.4 N 32 43 17 23 1013.6 1013.3 0.0
16/06:30pm 20.6 17.4 18.2 86 1.5 N 32 43 17 23 1013.2 1013.0 0.0
16/06:00pm 20.8 18.8 18.2 85 1.6 N 26 41 14 22 1012.8 1012.6 0.0
16/05:30pm 21.1 20.7 18.1 83 1.9 N 17 33 9 18 1012.5 1012.3 0.0
16/05:00pm 21.8 22.1 18.0 79 2.4 NNE 13 28 7 15 1012.1 1011.9 0.0
16/04:30pm 22.4 22.3 17.8 75 2.9 N 15 24 8 13 1012.0 1011.8 0.0
16/04:00pm 22.8 23.1 17.9 74 3.1 NNE 13 20 7 11 1011.7 1011.5 0.0
16/03:30pm 23.4 23.8 18.1 72 3.3 NNE 13 24 7 13 1011.6 1011.4 0.0
16/03:00pm 23.6 23.3 17.3 67 3.9 NNE 15 20 8 11 1011.5 1011.3 0.0
16/02:30pm 23.9 23.7 17.6 68 3.9 N 15 22 8 12 1012.0 1011.8 0.0
16/02:00pm 24.4 24.3 17.9 67 4.1 N 15 20 8 11 1012.3 1012.1 0.0
16/01:30pm 24.2 23.7 17.7 67 4.1 N 17 22 9 12 1012.5 1012.3 0.0
16/01:00pm 24.7 23.6 17.4 64 4.6 N 19 28 10 15 1013.0 1012.8 0.0
16/12:30pm 25.0 22.5 17.2 62 4.9 N 26 39 14 21 1013.3 1013.1 0.0
16/12:00pm 24.8 23.7 17.3 63 4.7 N 19 28 10 15 1014.4 1014.2 0.0
16/11:30am 25.3 24.2 17.7 62 4.8 N 20 30 11 16 1015.0 1014.8 0.0
16/11:00am 24.6 24.5 17.8 66 4.3 N 15 30 8 16 1015.6 1015.4 0.0
16/10:30am 24.6 24.8 18.5 69 3.9 N 15 24 8 13 1016.1 1015.9 0.0
16/10:00am 23.2 22.9 18.3 74 3.1 N 17 26 9 14 1016.5 1016.3 0.0
16/09:30am 21.7 20.5 18.5 82 2.0 NNW 22 30 12 16 1016.9 1016.7 0.0
16/09:00am 21.0 19.1 18.6 86 1.5 NNW 26 32 14 17 1016.8 1016.6 0.2
16/08:30am 20.1 18.3 18.8 92 0.8 NNW 26 35 14 19 1016.6 1016.4 0.2
16/08:00am 19.8 17.6 19.6 99 0.1 NNW 30 39 16 21 1016.5 1016.3 0.2
16/07:30am 18.8 16.6 18.6 99 0.1 NNW 28 37 15 20 1016.5 1016.3 0.2
16/07:00am 19.0 16.2 19.0 100 0.0 NNW 32 39 17 21 1016.4 1016.2 0.2
16/06:30am 18.8 15.8 18.6 99 0.1 NNW 32 39 17 21 1016.1 1015.9 0.2
16/06:00am 19.0 16.1 18.8 99 0.1 NNW 32 39 17 21 1015.8 1015.6 0.2
16/05:30am 19.1 17.0 18.9 99 0.1 NNW 28 33 15 18 1015.4 1015.2 0.2
16/05:00am 19.1 17.7 18.9 99 0.1 NNW 24 32 13 17 1015.1 1014.9 0.2
16/04:30am 19.0 16.8 18.8 99 0.1 NNW 28 33 15 18 1014.9 1014.7 0.2
16/04:00am 19.4 17.8 19.2 99 0.1 NNW 26 35 14 19 1014.8 1014.6 0.2
16/03:30am 19.0 16.5 18.8 99 0.1 NNW 30 35 16 19 1015.0 1014.8 0.2
16/03:00am 19.1 17.1 19.1 100 0.0 NNW 28 33 15 18 1015.0 1014.8 0.2
16/02:30am 18.9 17.5 18.9 100 0.0 NNW 24 32 13 17 1015.1 1014.9 0.2
16/02:00am 18.8 17.4 18.8 100 0.0 NNW 24 32 13 17 1015.4 1015.2 0.2
16/01:30am 18.7 16.9 18.7 100 0.0 NNW 26 32 14 17 1015.6 1015.4 0.2
16/01:00am 18.7 17.3 18.7 100 0.0 NW 24 30 13 16 1015.9 1015.7 0.2
16/12:30am 18.9 17.8 18.7 99 0.1 NNW 22 28 12 15 1016.1 1015.9 0.2
16/12:00am 19.2 17.1 19.0 99 0.1 NNW 28 35 15 19 1016.2 1016.0 0.2
 
Date/Time
EST
Temp
°C
App
Temp
°C
Dew
Point
°C
Rel
Hum
%
Delta-T
°C
Wind Press
QNH
hPa
Press
MSL
hPa
Rain since
9am
mm
Dir  Spd
km/h
Gust
km/h
Spd
kts
Gust
kts
15/11:30pm 18.9 17.7 18.4 97 0.3 NNW 22 28 12 15 1016.2 1016.0 0.2
15/11:00pm 19.2 17.8 17.9 92 0.8 NW 22 26 12 14 1016.0 1015.8 0.2
15/10:30pm 18.9 17.6 16.9 88 1.2 NNW 19 22 10 12 1016.2 1016.0 0.2
15/10:00pm 19.1 17.8 17.2 89 1.2 N 20 28 11 15 1016.2 1016.0 0.2
15/09:30pm 19.1 17.4 17.2 89 1.2 N 22 26 12 14 1016.2 1016.0 0.2
15/09:00pm 19.6 20.1 18.4 93 0.7 N 13 22 7 12 1016.3 1016.1 0.2
15/08:30pm 19.7 21.0 18.4 92 0.8 NNE 9 13 5 7 1016.4 1016.2 0.2
15/08:00pm 19.6 21.0 17.7 89 1.2 NNE 7 11 4 6 1016.4 1016.2 0.2
15/07:30pm 19.6 21.0 17.7 89 1.2 N 7 11 4 6 1016.4 1016.2 0.2
15/07:00pm 19.9 20.6 17.9 88 1.2 NNE 11 20 6 11 1016.2 1016.0 0.2
15/06:30pm 20.2 20.5 18.0 87 1.4 NNE 13 20 7 11 1016.0 1015.8 0.2
15/06:00pm 20.5 19.5 17.5 83 1.8 NNE 19 24 10 13 1015.9 1015.7 0.2
15/05:30pm 20.7 19.6 15.3 71 3.2 NE 15 20 8 11 1015.8 1015.6 0.2
15/05:00pm 22.1 21.5 14.5 62 4.5 NE 11 15 6 8 1015.7 1015.5 0.2
15/04:30pm 22.3 21.9 14.2 60 4.8 ENE 9 13 5 7 1015.7 1015.5 0.2
15/04:00pm 21.6 21.3 14.3 63 4.3 E 9 9 5 5 1015.6 1015.4 0.2
15/03:30pm 21.8 21.3 13.9 61 4.6 E 9 11 5 6 1015.4 1015.2 0.2
15/03:00pm 21.7 21.1 13.6 60 4.7 ESE 9 13 5 7 1015.7 1015.5 0.2
15/02:30pm 21.8 20.4 13.4 59 4.9 SE 13 15 7 8 1015.7 1015.5 0.2
15/02:00pm 21.7 20.0 12.3 55 5.3 SE 13 15 7 8 1015.9 1015.7 0.2
15/01:30pm 21.8 20.4 12.1 54 5.5 SSE 11 15 6 8 1016.2 1016.0 0.2
15/01:00pm 22.1 20.4 12.4 54 5.5 SSE 13 17 7 9 1016.6 1016.4 0.2
15/12:30pm 22.0 20.0 11.4 51 5.9 S 13 15 7 8 1017.2 1017.0 0.2
15/12:00pm 22.4 20.6 12.1 52 5.8 S 13 15 7 8 1017.6 1017.4 0.2
15/11:30am 22.7 21.6 12.0 50 6.1 S 9 15 5 8 1017.9 1017.7 0.2
15/11:00am 22.0 20.4 10.2 47 6.4 SSE 9 13 5 7 1018.3 1018.1 0.2
15/10:30am 22.2 20.8 11.0 49 6.2 SSE 9 13 5 7 1018.7 1018.5 0.2
15/10:00am 22.0 20.9 9.9 46 6.6 SSE 6 11 3 6 1018.9 1018.7 0.0
15/09:30am 21.7 20.1 10.2 48 6.3 SSE 9 13 5 7 1019.0 1018.8 0.0
15/09:00am 21.2 20.1 10.1 49 6.0 SSE 6 9 3 5 1019.2 1019.0 0.0
15/08:30am 20.6 20.0 12.3 59 4.7 SSE 7 9 4 5 1019.2 1019.0 0.0
15/08:00am 19.8 19.0 11.8 60 4.4 SE 7 13 4 7 1018.9 1018.7 0.0
15/07:30am 19.1 18.4 12.1 64 3.9 S 7 9 4 5 1018.7 1018.5 0.0
15/07:00am 17.8 16.8 13.3 75 2.5 S 11 13 6 7 1018.5 1018.3 0.0
15/06:30am 17.4 17.7 17.1 98 0.2 S 11 15 6 8 1018.1 1017.9 0.0
15/06:00am 17.2 17.1 17.0 99 0.1 S 13 15 7 8 1017.9 1017.7 0.0
15/05:30am 17.0 16.8 16.8 99 0.1 S 13 17 7 9 1017.5 1017.3 0.0
15/05:00am 17.0 16.1 16.8 99 0.1 S 17 19 9 10 1017.2 1017.0 0.0
15/04:30am 16.7 16.0 16.5 99 0.1 S 15 17 8 9 1017.0 1016.8 0.0
15/04:00am 17.2 17.5 17.0 99 0.1 SSW 11 13 6 7 1016.7 1016.5 0.0
15/03:30am 17.1 17.7 16.9 99 0.1 W 9 11 5 6 1016.6 1016.4 0.0
15/03:00am 17.5 19.3 17.3 99 0.1 W 4 6 2 3 1016.5 1016.3 0.0
15/02:30am 17.6 19.0 17.4 99 0.1 W 6 9 3 5 1016.6 1016.4 0.0
15/02:00am 17.6 18.8 17.4 99 0.1 W 7 13 4 7 1016.8 1016.6 0.0
15/01:30am 18.2 17.4 18.0 99 0.1 NW 19 24 10 13 1017.0 1016.8 0.0
15/01:00am 18.6 16.3 18.4 99 0.1 NW 28 32 15 17 1016.9 1016.7 0.0
15/12:30am 18.9 17.1 18.7 99 0.1 NNW 26 30 14 16 1017.1 1016.9 0.0
15/12:00am 18.9 17.8 18.7 99 0.1 NNW 22 28 12 15 1017.4 1017.2 0.0
 
Date/Time
EST
Temp
°C
App
Temp
°C
Dew
Point
°C
Rel
Hum
%
Delta-T
°C
Wind Press
QNH
hPa
Press
MSL
hPa
Rain since
9am
mm
Dir  Spd
km/h
Gust
km/h
Spd
kts
Gust
kts
14/11:30pm 19.0 17.8 18.5 97 0.3 NNW 22 24 12 13 1017.6 1017.4 0.0
14/11:00pm 19.2 17.6 18.4 95 0.5 NNW 24 30 13 16 1017.9 1017.7 0.0
14/10:30pm 19.2 17.8 18.0 93 0.7 NNW 22 28 12 15 1017.7 1017.5 0.0
14/10:00pm 19.3 17.8 17.8 91 0.9 NNW 22 28 12 15 1017.9 1017.7 0.0
14/09:30pm 19.2 17.9 17.2 88 1.2 NNW 20 28 11 15 1017.9 1017.7 0.0
14/09:00pm 19.3 17.9 16.9 86 1.5 NNW 20 22 11 12 1017.8 1017.6 0.0
14/08:30pm 19.5 18.1 16.5 83 1.8 NNW 19 24 10 13 1017.9 1017.7 0.0
14/08:00pm 19.7 18.1 16.5 82 1.9 NNW 20 24 11 13 1017.7 1017.5 0.0
14/07:30pm 19.9 18.1 16.0 78 2.3 NNW 20 26 11 14 1017.6 1017.4 0.0
14/07:00pm 20.3 18.9 16.5 79 2.3 N 19 24 10 13 1017.3 1017.1 0.0
14/06:30pm 20.7 21.8 16.7 78 2.4 NNE 6 9 3 5 1017.1 1016.9 0.0
14/06:00pm 21.0 20.7 16.4 75 2.8 NNE 13 24 7 13 1016.8 1016.6 0.0
14/05:30pm 21.4 20.3 16.4 73 3.0 NNE 17 24 9 13 1016.6 1016.4 0.0
14/05:00pm 22.3 20.2 16.1 68 3.8 NE 22 26 12 14 1016.3 1016.1 0.0
14/04:30pm 23.2 21.1 16.3 65 4.2 NE 22 26 12 14 1016.1 1015.9 0.0
14/04:00pm 23.9 22.3 16.4 63 4.6 NE 20 24 11 13 1015.9 1015.7 0.0
14/03:30pm 24.0 22.6 16.5 63 4.6 NNE 19 26 10 14 1016.0 1015.8 0.0
14/03:00pm 24.3 22.4 15.8 59 5.2 NNE 20 24 11 13 1016.0 1015.8 0.0
14/02:30pm 24.9 23.0 14.1 51 6.4 NNE 17 24 9 13 1015.9 1015.7 0.0
14/02:00pm 25.7 25.0 14.2 49 6.8 N 11 19 6 10 1016.0 1015.8 0.0
14/01:30pm 25.7 26.2 16.5 56 5.7 N 9 15 5 8 1016.5 1016.3 0.0
14/01:00pm 25.2 26.0 17.4 62 4.9 N 9 17 5 9 1016.8 1016.6 0.0
14/12:30pm 26.2 26.6 18.1 61 5.1 N 13 17 7 9 1017.8 1017.6 0.0
14/12:00pm 25.3 25.8 17.5 62 4.9 N 11 17 6 9 1018.5 1018.3 0.0
14/11:30am 25.1 25.7 17.6 63 4.7 N 11 15 6 8 1018.7 1018.5 0.0
14/11:00am 25.0 25.7 17.0 61 5.0 N 9 13 5 7 1019.4 1019.2 0.0
14/10:30am 24.2 25.0 17.4 65 4.2 NNW 9 15 5 8 1019.8 1019.6 0.0
14/10:00am 24.0 25.0 17.7 68 3.9 N 9 15 5 8 1020.2 1020.0 0.0
14/09:30am 23.1 24.5 17.3 70 3.6 N 6 11 3 6 1020.6 1020.4 0.0
14/09:00am 22.2 24.2 17.8 76 2.7 SSW 4 9 2 5 1020.8 1020.6 0.0
14/08:30am 21.0 23.6 17.4 80 2.2 CALM 0 0 0 0 1020.5 1020.3 0.0
14/08:00am 19.8 21.1 17.6 87 1.4 SSW 7 9 4 5 1020.2 1020.0 0.0
14/07:30am 19.2 19.9 17.9 92 0.8 SSW 11 15 6 8 1020.2 1020.0 0.0
14/07:00am 18.5 18.1 17.2 92 0.8 SSW 15 19 8 10 1020.4 1020.2 0.0
14/06:30am 18.7 19.0 17.0 90 1.0 SSW 11 13 6 7 1020.2 1020.0 0.0
14/06:00am 19.2 20.4 17.3 89 1.2 NNW 7 9 4 5 1020.1 1019.9 0.0

Latest Capital City Observations: Canberra | Sydney | Melbourne | Brisbane | Adelaide | Perth | Hobart | Darwin

Other Formats:

Comma delimited format used in spreadsheet applications
http://www.bom.gov.au/fwo/IDQ60901/IDQ60901.94584.axf

JavaScript Object Notation format (JSON) in row-major order
http://www.bom.gov.au/fwo/IDQ60901/IDQ60901.94584.json